Time;durP1;ratioP1;P1;durP2;ratioP2;P2;SDS_P1;SDS_P2;PMS_P1;PMS_P2;Temp;Humidity;BMP_temperature;BMP_pressure;BME280_temperature;BME280_humidity;BME280_pressure;Samples;Min_cycle;Max_cycle;Signal;HPM_P1;HPM_P2
2023/03/19 00:02:22;;;;;;;15.83;8.90;;;;;;;;;;4901324;29;20719;-85
2023/03/19 00:04:48;;;;;;;10.07;8.13;;;;;;;;;;4911579;29;20483;-84
2023/03/19 00:07:15;;;;;;;9.07;7.63;;;;;;;;;;4909753;29;20456;-85
2023/03/19 00:09:41;;;;;;;8.87;8.07;;;;;;;;;;4913626;29;20405;-84
2023/03/19 00:12:08;;;;;;;9.83;8.27;;;;;;;;;;4902694;29;20437;-83
2023/03/19 00:14:34;;;;;;;8.67;8.07;;;;;;;;;;4905143;29;20449;-85
2023/03/19 00:17:00;;;;;;;9.37;8.53;;;;;;;;;;4906072;29;20582;-84
2023/03/19 00:19:26;;;;;;;10.40;8.60;;;;;;;;;;4904461;29;21048;-84
2023/03/19 00:21:56;;;;;;;10.17;8.70;;;;;;;;;;4897629;29;20662;-84
2023/03/19 00:24:22;;;;;;;10.50;7.90;;;;;;;;;;4898877;29;21377;-85
2023/03/19 00:26:48;;;;;;;9.13;8.23;;;;;;;;;;4887014;29;20444;-84
2023/03/19 00:29:14;;;;;;;10.27;9.47;;;;;;;;;;4892049;29;20425;-85
2023/03/19 00:31:40;;;;;;;9.10;8.00;;;;;;;;;;4891432;29;20453;-85
2023/03/19 00:34:07;;;;;;;8.93;8.03;;;;;;;;;;4893247;29;20436;-84
2023/03/19 00:36:33;;;;;;;9.37;8.50;;;;;;;;;;4886762;29;20650;-85
2023/03/19 00:38:59;;;;;;;10.83;9.13;;;;;;;;;;4883292;29;21335;-84
2023/03/19 00:41:26;;;;;;;9.20;8.53;;;;;;;;;;4892712;29;20798;-83
2023/03/19 00:43:56;;;;;;;9.17;8.07;;;;;;;;;;4892680;29;20487;-84
2023/03/19 00:46:23;;;;;;;9.13;8.50;;;;;;;;;;4894954;29;20555;-85
2023/03/19 00:48:52;;;;;;;9.37;8.57;;;;;;;;;;4889127;29;20460;-85
2023/03/19 00:51:22;;;;;;;9.57;8.87;;;;;;;;;;4890506;29;20500;-84
2023/03/19 00:53:48;;;;;;;9.83;8.93;;;;;;;;;;4894745;29;20552;-86
2023/03/19 00:56:17;;;;;;;11.90;10.47;;;;;;;;;;4894851;29;20525;-85
2023/03/19 00:58:43;;;;;;;12.63;10.63;;;;;;;;;;4897262;29;20478;-84
2023/03/19 01:01:10;;;;;;;12.80;11.67;;;;;;;;;;4900577;29;20476;-81
2023/03/19 01:03:36;;;;;;;11.73;10.70;;;;;;;;;;4907173;29;20471;-86
2023/03/19 01:06:02;;;;;;;14.63;10.40;;;;;;;;;;4921432;29;20441;-87
2023/03/19 01:08:29;;;;;;;12.00;10.83;;;;;;;;;;4922419;29;20434;-85
2023/03/19 01:13:31;;;;;;;14.03;11.30;;;;;;;;;;5291343;23;20491;-86
2023/03/19 01:21:11;;;;;;;10.87;9.73;;;;;;;;;;5015015;23;20490;-84
2023/03/19 01:23:40;;;;;;;11.17;10.10;;;;;;;;;;4939348;29;20463;-86
2023/03/19 01:39:09;;;;;;;17.53;13.83;;;;;;;;;;5377057;23;20608;-85
2023/03/19 01:41:35;;;;;;;13.47;12.23;;;;;;;;;;4952064;28;20423;-87
2023/03/19 01:44:02;;;;;;;15.73;12.53;;;;;;;;;;4929973;28;20491;-86
2023/03/19 01:51:45;;;;;;;19.80;14.70;;;;;;;;;;4996920;23;20480;-86
2023/03/19 01:54:26;;;;;;;16.27;14.77;;;;;;;;;;5146794;23;20503;-86
2023/03/19 01:56:59;;;;;;;17.30;14.80;;;;;;;;;;5044000;23;20484;-84
2023/03/19 01:59:31;;;;;;;13.40;12.13;;;;;;;;;;4924547;29;20549;-85
2023/03/19 02:04:33;;;;;;;20.67;17.03;;;;;;;;;;5875466;23;21218;-83
2023/03/19 02:09:35;;;;;;;13.57;12.03;;;;;;;;;;4926586;26;20465;-86
2023/03/19 02:12:12;;;;;;;12.33;11.33;;;;;;;;;;4966837;28;20442;-86
2023/03/19 02:14:38;;;;;;;16.80;13.43;;;;;;;;;;5003014;23;20601;-82
2023/03/19 02:17:07;;;;;;;10.07;9.27;;;;;;;;;;4956647;28;20450;-86
2023/03/19 02:32:32;;;;;;;19.13;16.40;;;;;;;;;;5406622;23;21718;-82
2023/03/19 02:34:59;;;;;;;14.50;13.10;;;;;;;;;;4984616;28;20427;-86
2023/03/19 02:37:30;;;;;;;16.70;15.07;;;;;;;;;;4982902;28;20434;-88
2023/03/19 02:40:07;;;;;;;19.10;16.40;;;;;;;;;;4973705;28;20422;-86
2023/03/19 02:47:48;;;;;;;18.33;16.33;;;;;;;;;;5079388;23;20490;-86
2023/03/19 02:50:17;;;;;;;20.17;15.23;;;;;;;;;;5008296;23;20679;-87
2023/03/19 02:52:51;;;;;;;12.73;11.00;;;;;;;;;;5479909;23;20491;-85
2023/03/19 03:03:08;;;;;;;10.53;9.70;;;;;;;;;;5793649;23;20498;-85
2023/03/19 03:13:12;;;;;;;8.80;7.90;;;;;;;;;;5329578;23;20478;-87
2023/03/19 03:15:41;;;;;;;9.13;8.20;;;;;;;;;;4957529;28;20436;-85
2023/03/19 03:18:07;;;;;;;9.43;8.63;;;;;;;;;;4952184;28;20435;-86
2023/03/19 03:20:33;;;;;;;9.73;9.03;;;;;;;;;;4973749;28;20473;-86
2023/03/19 03:22:59;;;;;;;10.50;9.60;;;;;;;;;;4962938;23;20424;-81
2023/03/19 03:25:25;;;;;;;9.30;8.37;;;;;;;;;;4974289;28;20466;-86
2023/03/19 03:27:52;;;;;;;15.07;13.50;;;;;;;;;;5186189;23;20455;-85
2023/03/19 03:30:19;;;;;;;9.07;8.40;;;;;;;;;;4938675;29;20411;-85
2023/03/19 03:32:47;;;;;;;7.87;7.40;;;;;;;;;;4953083;28;20419;-86
2023/03/19 03:35:20;;;;;;;9.90;8.93;;;;;;;;;;5074263;23;20502;-84
2023/03/19 03:37:46;;;;;;;8.80;8.07;;;;;;;;;;4974381;28;20406;-84
2023/03/19 03:42:49;;;;;;;9.27;8.00;;;;;;;;;;5213094;23;20478;-86
2023/03/19 03:45:15;;;;;;;7.87;7.37;;;;;;;;;;4952754;28;20503;-86
2023/03/19 03:47:44;;;;;;;8.70;8.10;;;;;;;;;;4958781;28;20538;-85
2023/03/19 03:50:11;;;;;;;9.03;8.23;;;;;;;;;;4952166;29;20444;-86
2023/03/19 03:52:38;;;;;;;8.77;8.10;;;;;;;;;;4957526;29;20457;-85
2023/03/19 03:57:40;;;;;;;7.43;6.87;;;;;;;;;;5363419;23;20515;-85
2023/03/19 04:00:06;;;;;;;7.60;7.03;;;;;;;;;;4975075;28;20434;-87
2023/03/19 04:05:08;;;;;;;6.77;6.47;;;;;;;;;;5673821;23;20542;-87
2023/03/19 04:10:12;;;;;;;6.50;6.10;;;;;;;;;;5113487;23;20482;-86
2023/03/19 04:12:46;;;;;;;6.03;5.63;;;;;;;;;;4959605;28;20443;-85
2023/03/19 04:20:26;;;;;;;6.57;6.20;;;;;;;;;;5593424;23;20541;-84
2023/03/19 04:22:55;;;;;;;5.50;5.10;;;;;;;;;;5307787;23;20478;-84
2023/03/19 04:33:13;;;;;;;4.50;4.20;;;;;;;;;;5465405;23;20268;-82
2023/03/19 04:46:06;;;;;;;6.77;6.17;;;;;;;;;;5628940;23;21503;-81
2023/03/19 04:56:39;;;;;;;7.53;6.70;;;;;;;;;;5512648;23;20582;-86
2023/03/19 04:59:09;;;;;;;4.93;4.13;;;;;;;;;;5411513;23;20482;-85
2023/03/19 05:14:34;;;;;;;4.00;3.90;;;;;;;;;;5462734;23;20528;-84
2023/03/19 05:22:23;;;;;;;4.23;3.80;;;;;;;;;;5345669;23;20495;-86
2023/03/19 05:43:26;;;;;;;4.33;4.07;;;;;;;;;;5658313;23;20501;-87
2023/03/19 06:04:08;;;;;;;4.50;4.23;;;;;;;;;;5702029;23;20510;-84
2023/03/19 06:14:22;;;;;;;10.47;9.50;;;;;;;;;;5769598;23;20487;-84
2023/03/19 06:16:48;;;;;;;4.43;4.03;;;;;;;;;;4932699;29;20436;-84
2023/03/19 06:19:14;;;;;;;6.73;4.20;;;;;;;;;;4906623;29;20440;-84
2023/03/19 06:21:40;;;;;;;4.03;3.73;;;;;;;;;;4911472;29;20827;-84
2023/03/19 06:24:09;;;;;;;5.43;5.13;;;;;;;;;;4907970;29;20482;-84
2023/03/19 06:26:36;;;;;;;4.83;4.50;;;;;;;;;;4915434;29;20477;-85
2023/03/19 06:29:02;;;;;;;5.03;4.63;;;;;;;;;;4916578;29;20455;-85
2023/03/19 06:31:28;;;;;;;4.13;4.03;;;;;;;;;;4898194;29;20469;-85
2023/03/19 06:33:55;;;;;;;4.53;4.33;;;;;;;;;;4927483;29;20444;-86
2023/03/19 06:36:26;;;;;;;6.13;5.20;;;;;;;;;;4903200;29;20425;-85
2023/03/19 06:38:52;;;;;;;6.43;6.10;;;;;;;;;;4930964;29;20451;-85
2023/03/19 06:41:18;;;;;;;5.57;5.07;;;;;;;;;;4927534;29;20457;-86
2023/03/19 06:43:45;;;;;;;6.10;4.87;;;;;;;;;;4912815;29;20482;-83
2023/03/19 06:46:11;;;;;;;5.63;5.20;;;;;;;;;;4929242;29;20495;-85
2023/03/19 06:48:37;;;;;;;3.87;3.77;;;;;;;;;;4929606;29;20440;-83
2023/03/19 06:51:03;;;;;;;5.20;4.87;;;;;;;;;;4929412;29;20684;-85
2023/03/19 06:53:29;;;;;;;5.53;5.10;;;;;;;;;;4928617;29;20460;-86
2023/03/19 06:56:02;;;;;;;5.93;5.53;;;;;;;;;;4927133;29;20523;-85
2023/03/19 06:58:28;;;;;;;5.57;5.27;;;;;;;;;;4929729;29;20460;-85
2023/03/19 07:01:02;;;;;;;5.87;5.50;;;;;;;;;;4919824;29;20427;-85
2023/03/19 07:03:31;;;;;;;8.63;5.90;;;;;;;;;;4932207;29;20492;-85
2023/03/19 07:06:00;;;;;;;4.67;4.53;;;;;;;;;;4928108;29;20432;-86
2023/03/19 07:08:28;;;;;;;5.67;5.20;;;;;;;;;;4928983;29;20492;-86
2023/03/19 07:10:57;;;;;;;5.60;5.30;;;;;;;;;;4931640;29;20447;-86
2023/03/19 07:13:23;;;;;;;5.50;5.30;;;;;;;;;;4938898;29;20436;-85
2023/03/19 07:15:49;;;;;;;4.67;4.47;;;;;;;;;;4915483;29;20542;-84
2023/03/19 07:18:16;;;;;;;5.87;4.70;;;;;;;;;;4935011;29;20690;-85
2023/03/19 07:20:42;;;;;;;5.80;5.40;;;;;;;;;;4933320;29;20447;-85
2023/03/19 07:23:08;;;;;;;4.60;4.20;;;;;;;;;;4928483;29;20443;-85
2023/03/19 07:25:36;;;;;;;5.17;4.80;;;;;;;;;;4919960;29;20502;-85
2023/03/19 07:28:02;;;;;;;4.13;3.83;;;;;;;;;;4939134;29;20444;-85
2023/03/19 07:30:29;;;;;;;4.40;4.10;;;;;;;;;;4934725;28;20450;-87
2023/03/19 07:32:55;;;;;;;7.93;4.40;;;;;;;;;;4936190;29;20504;-86
2023/03/19 07:35:21;;;;;;;5.10;4.60;;;;;;;;;;5082593;23;20555;-84
2023/03/19 07:37:49;;;;;;;4.60;4.40;;;;;;;;;;5209024;23;20487;-87
2023/03/19 07:40:19;;;;;;;6.30;5.80;;;;;;;;;;4959932;23;20507;-87
2023/03/19 07:42:45;;;;;;;4.37;4.27;;;;;;;;;;4964310;28;20551;-85
2023/03/19 07:45:18;;;;;;;4.97;4.10;;;;;;;;;;4958344;28;20474;-89
2023/03/19 07:47:46;;;;;;;3.60;3.50;;;;;;;;;;4961798;29;20462;-88
2023/03/19 07:50:12;;;;;;;4.27;3.87;;;;;;;;;;4957217;29;20426;-88
2023/03/19 07:52:38;;;;;;;4.60;4.30;;;;;;;;;;4960703;29;20431;-87
2023/03/19 07:55:07;;;;;;;4.77;4.47;;;;;;;;;;4962303;29;20446;-86
2023/03/19 07:57:33;;;;;;;4.00;3.90;;;;;;;;;;5064713;23;20523;-82
2023/03/19 08:02:35;;;;;;;3.77;3.57;;;;;;;;;;5127343;23;20476;-85
2023/03/19 08:05:03;;;;;;;4.23;4.13;;;;;;;;;;4932621;29;20471;-85
2023/03/19 08:07:29;;;;;;;4.17;4.00;;;;;;;;;;4983047;23;20476;-84
2023/03/19 08:09:57;;;;;;;3.50;3.50;;;;;;;;;;4942048;29;20495;-86
2023/03/19 08:12:24;;;;;;;4.50;4.30;;;;;;;;;;4970307;23;20487;-86
2023/03/19 08:14:50;;;;;;;4.20;3.80;;;;;;;;;;4948692;29;20465;-86
2023/03/19 08:17:16;;;;;;;7.13;6.57;;;;;;;;;;5279233;23;20524;-84
2023/03/19 08:19:46;;;;;;;4.50;4.30;;;;;;;;;;5278817;23;20458;-81
2023/03/19 08:32:36;;;;;;;3.37;3.27;;;;;;;;;;5309883;23;20478;-83
2023/03/19 08:35:02;;;;;;;9.53;8.63;;;;;;;;;;5437497;23;21210;-81
2023/03/19 08:40:11;;;;;;;5.30;4.80;;;;;;;;;;5248869;23;20475;-80
2023/03/19 08:42:41;;;;;;;9.80;8.60;;;;;;;;;;5225885;23;20566;-81
2023/03/19 08:45:11;;;;;;;3.77;3.67;;;;;;;;;;5106525;23;20595;-86
2023/03/19 08:52:44;;;;;;;3.57;3.50;;;;;;;;;;5211355;23;20530;-84
2023/03/19 08:55:13;;;;;;;3.90;3.90;;;;;;;;;;4955824;29;20431;-87
2023/03/19 08:57:39;;;;;;;4.07;3.80;;;;;;;;;;4953547;29;20427;-83
2023/03/19 09:00:06;;;;;;;3.20;3.10;;;;;;;;;;4956727;29;20479;-81
2023/03/19 09:05:09;;;;;;;3.67;3.47;;;;;;;;;;4913202;29;20498;-84
2023/03/19 09:07:35;;;;;;;3.37;3.17;;;;;;;;;;4922057;29;20510;-85
2023/03/19 09:10:01;;;;;;;3.90;3.70;;;;;;;;;;4920636;29;20831;-84
2023/03/19 09:12:27;;;;;;;3.07;3.07;;;;;;;;;;4922992;29;20440;-85
2023/03/19 09:14:53;;;;;;;2.70;2.60;;;;;;;;;;4929443;29;20527;-83
2023/03/19 09:17:19;;;;;;;3.40;3.27;;;;;;;;;;4928147;29;20592;-83
2023/03/19 09:19:45;;;;;;;4.87;3.80;;;;;;;;;;4929807;29;20543;-84
2023/03/19 09:22:11;;;;;;;2.60;2.60;;;;;;;;;;4913802;29;20731;-82
2023/03/19 09:24:41;;;;;;;2.90;2.73;;;;;;;;;;4909586;29;20547;-85
2023/03/19 09:27:10;;;;;;;2.13;2.13;;;;;;;;;;4909558;29;20538;-86
2023/03/19 09:29:42;;;;;;;3.43;3.30;;;;;;;;;;4933116;29;20459;-83
2023/03/19 09:32:16;;;;;;;3.30;3.20;;;;;;;;;;4934426;29;20420;-85
2023/03/19 09:34:42;;;;;;;2.90;2.80;;;;;;;;;;4919642;29;20865;-86
2023/03/19 09:37:11;;;;;;;2.93;2.90;;;;;;;;;;4930214;29;20444;-84
2023/03/19 09:39:37;;;;;;;3.73;3.53;;;;;;;;;;4931299;29;20447;-83
2023/03/19 09:42:03;;;;;;;3.27;3.13;;;;;;;;;;4942207;29;20466;-84
2023/03/19 09:44:34;;;;;;;3.60;3.50;;;;;;;;;;4924994;29;20472;-84
2023/03/19 09:47:25;;;;;;;3.47;3.37;;;;;;;;;;4938873;29;20953;-86
2023/03/19 09:49:52;;;;;;;3.47;3.37;;;;;;;;;;4916402;29;20910;-85
2023/03/19 09:52:35;;;;;;;3.40;3.40;;;;;;;;;;4930813;29;20536;-86
2023/03/19 09:55:08;;;;;;;3.50;3.50;;;;;;;;;;4925825;29;20424;-85
2023/03/19 10:08:32;;;;;;;4.13;4.03;;;;;;;;;;5105584;27;20532;-86
2023/03/19 10:10:58;;;;;;;4.50;4.40;;;;;;;;;;5095498;28;20434;-86
2023/03/19 10:13:40;;;;;;;4.27;4.17;;;;;;;;;;5103215;28;20824;-84
2023/03/19 10:16:11;;;;;;;5.33;5.13;;;;;;;;;;5106549;28;20475;-87
2023/03/19 10:18:41;;;;;;;5.23;5.00;;;;;;;;;;5092570;28;20448;-84
2023/03/19 10:21:11;;;;;;;6.40;6.20;;;;;;;;;;5093253;28;20432;-86
2023/03/19 10:23:40;;;;;;;6.13;5.93;;;;;;;;;;5099610;28;20556;-86
2023/03/19 10:26:11;;;;;;;4.87;4.73;;;;;;;;;;5104744;28;20472;-86
2023/03/19 10:28:46;;;;;;;4.80;4.70;;;;;;;;;;5107131;28;20478;-85
2023/03/19 10:31:38;;;;;;;4.50;4.40;;;;;;;;;;5100398;28;20435;-84
2023/03/19 10:34:14;;;;;;;5.50;5.17;;;;;;;;;;5106219;28;20415;-88
2023/03/19 10:39:17;;;;;;;5.70;5.50;;;;;;;;;;5080076;26;20490;-84
2023/03/19 10:41:47;;;;;;;4.00;3.90;;;;;;;;;;5110306;28;20489;-86
2023/03/19 10:44:32;;;;;;;4.60;4.50;;;;;;;;;;5098909;28;20680;-85
2023/03/19 10:46:59;;;;;;;4.60;4.50;;;;;;;;;;5096343;28;20450;-84
2023/03/19 10:49:25;;;;;;;5.40;5.20;;;;;;;;;;5075743;28;20430;-82
2023/03/19 10:51:51;;;;;;;4.97;4.87;;;;;;;;;;5080663;28;20524;-82
2023/03/19 10:54:27;;;;;;;5.37;5.13;;;;;;;;;;5073908;28;20435;-82
2023/03/19 10:57:00;;;;;;;7.00;6.50;;;;;;;;;;5083559;28;20461;-83
2023/03/19 10:59:32;;;;;;;5.23;5.03;;;;;;;;;;5083970;28;20505;-82
2023/03/19 11:01:59;;;;;;;6.20;5.90;;;;;;;;;;5077446;28;20478;-83
2023/03/19 11:04:31;;;;;;;6.17;5.97;;;;;;;;;;5085198;28;20993;-82
2023/03/19 11:07:04;;;;;;;6.07;5.87;;;;;;;;;;5076184;28;20455;-82
2023/03/19 11:09:37;;;;;;;5.97;5.67;;;;;;;;;;5064912;28;20438;-83
2023/03/19 11:12:07;;;;;;;7.00;6.70;;;;;;;;;;5071897;28;21017;-83
2023/03/19 11:14:37;;;;;;;2.10;2.10;;;;;;;;;;5069059;28;20514;-84
2023/03/19 11:17:27;;;;;;;2.57;2.37;;;;;;;;;;5082641;28;20655;-84
2023/03/19 11:19:59;;;;;;;2.17;2.17;;;;;;;;;;5084880;28;20493;-80
2023/03/19 11:22:28;;;;;;;2.33;2.23;;;;;;;;;;5064515;28;20463;-81
2023/03/19 11:25:13;;;;;;;1.30;1.30;;;;;;;;;;5079102;28;20424;-82
2023/03/19 11:27:42;;;;;;;2.93;2.27;;;;;;;;;;5078356;28;20543;-82
2023/03/19 11:30:18;;;;;;;2.63;2.63;;;;;;;;;;5085512;28;20428;-82
2023/03/19 11:32:47;;;;;;;3.77;3.57;;;;;;;;;;5078605;28;20505;-81
2023/03/19 11:35:20;;;;;;;4.50;4.10;;;;;;;;;;5082696;28;20459;-80
2023/03/19 11:37:49;;;;;;;6.03;4.87;;;;;;;;;;5064267;28;20466;-80
2023/03/19 11:40:15;;;;;;;5.00;4.60;;;;;;;;;;5079649;28;20652;-82
2023/03/19 11:42:41;;;;;;;4.60;4.20;;;;;;;;;;5082372;28;20444;-80
2023/03/19 11:45:19;;;;;;;3.60;3.40;;;;;;;;;;5083091;28;20588;-80
2023/03/19 11:48:04;;;;;;;4.17;3.90;;;;;;;;;;5079314;28;20434;-81
2023/03/19 11:50:31;;;;;;;4.83;4.53;;;;;;;;;;5072352;28;20415;-81
2023/03/19 11:53:16;;;;;;;7.27;4.57;;;;;;;;;;5101504;28;20456;-83
2023/03/19 11:55:55;;;;;;;5.00;4.70;;;;;;;;;;5084902;28;20567;-81
2023/03/19 11:58:34;;;;;;;;;;;;;;;;;;;;;
2023/03/19 12:01:09;;;;;;;4.87;4.47;;;;;;;;;;5075987;28;20428;-81
2023/03/19 12:03:41;;;;;;;5.27;4.87;;;;;;;;;;5092214;28;20442;-84
2023/03/19 12:06:21;;;;;;;6.30;5.90;;;;;;;;;;5073733;28;20436;-82
2023/03/19 12:08:58;;;;;;;6.10;5.80;;;;;;;;;;5074767;28;20441;-82
2023/03/19 12:11:33;;;;;;;5.13;4.93;;;;;;;;;;5062946;28;20435;-82
2023/03/19 12:14:11;;;;;;;4.77;4.47;;;;;;;;;;5079668;28;20538;-86
2023/03/19 12:17:03;;;;;;;4.83;4.63;;;;;;;;;;5092399;28;20464;-82
2023/03/19 12:19:56;;;;;;;5.30;5.00;;;;;;;;;;5014587;28;20671;-79
2023/03/19 12:22:41;;;;;;;5.47;5.23;;;;;;;;;;5060592;28;20436;-82
2023/03/19 12:25:21;;;;;;;6.20;5.80;;;;;;;;;;5086340;28;20476;-84
2023/03/19 12:27:50;;;;;;;5.40;5.20;;;;;;;;;;5080849;28;20470;-82
2023/03/19 12:30:35;;;;;;;6.43;6.13;;;;;;;;;;5071267;28;20526;-80
2023/03/19 12:33:19;;;;;;;5.87;5.63;;;;;;;;;;5072287;28;21015;-84
2023/03/19 12:35:55;;;;;;;6.60;6.20;;;;;;;;;;5061570;28;20459;-87
2023/03/19 12:38:25;;;;;;;6.73;6.10;;;;;;;;;;5067689;28;20498;-83
2023/03/19 12:41:01;;;;;;;7.30;6.80;;;;;;;;;;5073252;28;20455;-82
2023/03/19 12:43:33;;;;;;;6.93;6.53;;;;;;;;;;5084717;28;20504;-82
2023/03/19 12:46:02;;;;;;;7.90;7.47;;;;;;;;;;5084520;28;20636;-84
2023/03/19 12:48:30;;;;;;;6.97;6.47;;;;;;;;;;5075322;28;20465;-82
2023/03/19 12:51:02;;;;;;;7.87;7.37;;;;;;;;;;5086052;28;20434;-82
2023/03/19 12:53:28;;;;;;;8.90;8.40;;;;;;;;;;5059670;28;20813;-84
2023/03/19 12:55:57;;;;;;;7.63;7.10;;;;;;;;;;5085435;28;21053;-84
2023/03/19 12:58:23;;;;;;;7.70;6.90;;;;;;;;;;5071928;28;20447;-82
2023/03/19 13:00:49;;;;;;;6.07;5.57;;;;;;;;;;5102481;28;20821;-84
2023/03/19 13:03:45;;;;;;;8.40;7.80;;;;;;;;;;5086804;28;20775;-85
2023/03/19 13:06:27;;;;;;;8.97;8.27;;;;;;;;;;5071606;28;20436;-82
2023/03/19 13:08:58;;;;;;;8.87;8.13;;;;;;;;;;5111919;28;20435;-87
2023/03/19 13:11:34;;;;;;;7.60;7.10;;;;;;;;;;5112892;28;20892;-85
2023/03/19 13:14:03;;;;;;;7.57;6.97;;;;;;;;;;5106861;28;20430;-86
2023/03/19 13:16:48;;;;;;;7.33;6.90;;;;;;;;;;5101040;28;20451;-86
2023/03/19 13:19:35;;;;;;;6.93;6.37;;;;;;;;;;5094118;28;20431;-84
2023/03/19 13:22:04;;;;;;;5.70;5.33;;;;;;;;;;5053419;28;20443;-85
2023/03/19 13:24:33;;;;;;;5.20;5.00;;;;;;;;;;5087865;28;20589;-85
2023/03/19 13:27:02;;;;;;;5.07;4.90;;;;;;;;;;5075542;28;20481;-86
2023/03/19 13:29:30;;;;;;;5.10;5.00;;;;;;;;;;5065312;28;20451;-82
2023/03/19 13:32:08;;;;;;;5.70;5.50;;;;;;;;;;5077402;28;20428;-82
2023/03/19 13:34:36;;;;;;;5.90;5.70;;;;;;;;;;5066235;28;20434;-82
2023/03/19 13:37:28;;;;;;;5.90;5.50;;;;;;;;;;5092685;28;20468;-83
2023/03/19 13:39:54;;;;;;;5.27;4.97;;;;;;;;;;5057139;28;20437;-84
2023/03/19 13:45:38;;;;;;;5.47;5.17;;;;;;;;;;5053226;28;20439;-85
2023/03/19 13:48:37;;;;;;;5.27;5.07;;;;;;;;;;5071279;28;20428;-84
2023/03/19 13:51:27;;;;;;;3.53;3.43;;;;;;;;;;5053105;28;20465;-86
2023/03/19 13:54:11;;;;;;;3.80;3.80;;;;;;;;;;5089092;28;20440;-85
2023/03/19 13:56:57;;;;;;;4.20;4.00;;;;;;;;;;5100755;28;20463;-82
2023/03/19 13:59:26;;;;;;;3.63;3.53;;;;;;;;;;5101688;28;20434;-81
2023/03/19 14:07:45;;;;;;;4.50;4.40;;;;;;;;;;5074113;22;20535;-86
2023/03/19 14:10:28;;;;;;;3.80;3.70;;;;;;;;;;5112378;28;20423;-83
2023/03/19 14:13:26;;;;;;;3.60;3.60;;;;;;;;;;5142997;27;20433;-85
2023/03/19 14:16:14;;;;;;;3.90;3.60;;;;;;;;;;5121129;28;20463;-84
2023/03/19 14:19:01;;;;;;;3.07;3.07;;;;;;;;;;5080557;28;20491;-89
2023/03/19 14:21:38;;;;;;;3.53;3.43;;;;;;;;;;5108668;28;20421;-84
2023/03/19 14:24:23;;;;;;;3.63;3.33;;;;;;;;;;5101853;28;20411;-85
2023/03/19 14:27:12;;;;;;;3.50;3.40;;;;;;;;;;5105095;28;20436;-86
2023/03/19 14:29:47;;;;;;;3.90;3.70;;;;;;;;;;5100361;28;20431;-87
2023/03/19 14:32:16;;;;;;;4.33;3.60;;;;;;;;;;5097931;28;20407;-85
2023/03/19 14:34:59;;;;;;;4.70;4.40;;;;;;;;;;5119906;28;20480;-85
2023/03/19 14:37:43;;;;;;;3.67;3.67;;;;;;;;;;5100030;28;20460;-86
2023/03/19 14:40:18;;;;;;;4.73;4.33;;;;;;;;;;5091628;28;20451;-85
2023/03/19 14:43:19;;;;;;;4.03;3.83;;;;;;;;;;5093167;28;20412;-83
2023/03/19 14:45:54;;;;;;;3.63;3.50;;;;;;;;;;5096146;28;20500;-85
2023/03/19 14:48:28;;;;;;;4.47;4.17;;;;;;;;;;5094796;28;20440;-87
2023/03/19 14:51:19;;;;;;;3.30;3.20;;;;;;;;;;5096456;28;20508;-87
2023/03/19 14:54:04;;;;;;;3.53;3.53;;;;;;;;;;5115748;28;20452;-84
2023/03/19 14:56:31;;;;;;;3.47;3.33;;;;;;;;;;5107474;28;20475;-84
2023/03/19 14:59:05;;;;;;;4.13;4.03;;;;;;;;;;5117398;28;20542;-86
2023/03/19 15:01:35;;;;;;;4.30;4.20;;;;;;;;;;5111332;28;20452;-86
2023/03/19 15:04:07;;;;;;;4.27;4.07;;;;;;;;;;5091579;28;20454;-84
2023/03/19 15:06:34;;;;;;;4.67;4.50;;;;;;;;;;5105024;28;20495;-83
2023/03/19 15:09:08;;;;;;;5.00;4.70;;;;;;;;;;5114894;28;21014;-85
2023/03/19 15:11:50;;;;;;;5.07;4.67;;;;;;;;;;5094448;28;21612;-85
2023/03/19 15:14:19;;;;;;;5.30;4.80;;;;;;;;;;5103070;28;20443;-81
2023/03/19 15:16:50;;;;;;;4.23;4.00;;;;;;;;;;5118857;28;20451;-85
2023/03/19 15:19:18;;;;;;;5.50;5.10;;;;;;;;;;5102755;28;20560;-84
2023/03/19 15:21:49;;;;;;;4.50;4.40;;;;;;;;;;5087526;28;20423;-82
2023/03/19 15:24:18;;;;;;;4.47;4.27;;;;;;;;;;5115977;28;20479;-84
2023/03/19 15:26:45;;;;;;;4.17;4.07;;;;;;;;;;5086161;28;20494;-83
2023/03/19 15:29:12;;;;;;;4.30;4.10;;;;;;;;;;5113844;28;20447;-86
2023/03/19 15:31:52;;;;;;;4.27;4.07;;;;;;;;;;5097082;28;20455;-85
2023/03/19 15:34:22;;;;;;;5.60;5.30;;;;;;;;;;5102099;28;20816;-85
2023/03/19 15:36:57;;;;;;;4.50;4.30;;;;;;;;;;5112183;28;20467;-86
2023/03/19 15:39:29;;;;;;;4.90;4.70;;;;;;;;;;5103034;28;20479;-86
2023/03/19 15:41:56;;;;;;;6.00;5.70;;;;;;;;;;5097536;28;20936;-80
2023/03/19 15:44:30;;;;;;;7.90;7.20;;;;;;;;;;5106389;28;20423;-85
2023/03/19 15:46:57;;;;;;;5.67;5.37;;;;;;;;;;5098236;28;20431;-86
2023/03/19 15:49:28;;;;;;;5.53;5.23;;;;;;;;;;5104498;28;20467;-85
2023/03/19 15:51:56;;;;;;;5.40;5.00;;;;;;;;;;5085792;28;20479;-83
2023/03/19 15:54:23;;;;;;;4.43;4.13;;;;;;;;;;5095398;28;20447;-87
2023/03/19 15:56:50;;;;;;;4.23;4.03;;;;;;;;;;5094135;28;20471;-86
2023/03/19 15:59:36;;;;;;;4.07;3.97;;;;;;;;;;5107998;28;20478;-86
2023/03/19 16:02:04;;;;;;;7.40;6.90;;;;;;;;;;5105734;28;21034;-83
2023/03/19 16:04:35;;;;;;;4.57;4.47;;;;;;;;;;5087180;28;20452;-85
2023/03/19 16:07:01;;;;;;;6.47;6.07;;;;;;;;;;5104795;28;20427;-85
2023/03/19 16:09:33;;;;;;;6.03;5.80;;;;;;;;;;5088887;28;20416;-82
2023/03/19 16:12:00;;;;;;;7.23;5.60;;;;;;;;;;5105680;28;20940;-83
2023/03/19 16:14:30;;;;;;;5.73;5.53;;;;;;;;;;5107291;28;20817;-85
2023/03/19 16:17:23;;;;;;;5.23;5.07;;;;;;;;;;5082811;28;20483;-84
2023/03/19 16:19:55;;;;;;;5.03;4.83;;;;;;;;;;5085428;28;20443;-84
2023/03/19 16:22:23;;;;;;;5.40;4.90;;;;;;;;;;5076389;28;20822;-84
2023/03/19 16:24:54;;;;;;;4.90;4.80;;;;;;;;;;5097315;28;20458;-83
2023/03/19 16:27:22;;;;;;;5.27;4.93;;;;;;;;;;5095329;28;20424;-84
2023/03/19 16:29:55;;;;;;;5.53;5.33;;;;;;;;;;5102365;28;20430;-83
2023/03/19 16:32:23;;;;;;;7.50;7.10;;;;;;;;;;5103686;28;20443;-81
2023/03/19 16:34:51;;;;;;;6.33;5.80;;;;;;;;;;5119704;28;20506;-84
2023/03/19 16:37:33;;;;;;;5.17;4.97;;;;;;;;;;5111721;28;20471;-86
2023/03/19 16:40:00;;;;;;;6.00;5.70;;;;;;;;;;5109939;28;20594;-84
2023/03/19 16:42:28;;;;;;;5.53;5.00;;;;;;;;;;5101170;28;20849;-82
2023/03/19 16:44:55;;;;;;;5.83;5.57;;;;;;;;;;5102884;28;20443;-84
2023/03/19 16:47:24;;;;;;;5.83;5.60;;;;;;;;;;5081910;28;20586;-89
2023/03/19 16:49:50;;;;;;;6.00;5.70;;;;;;;;;;5090607;28;20423;-86
2023/03/19 16:52:20;;;;;;;6.13;5.93;;;;;;;;;;5086663;28;20881;-86
2023/03/19 16:54:46;;;;;;;6.20;5.30;;;;;;;;;;5101433;28;20497;-85
2023/03/19 16:57:13;;;;;;;6.93;6.43;;;;;;;;;;5097638;28;20467;-86
2023/03/19 16:59:42;;;;;;;6.33;5.93;;;;;;;;;;5093076;28;20431;-85
2023/03/19 17:02:13;;;;;;;7.83;6.80;;;;;;;;;;5078062;28;20437;-85
2023/03/19 17:04:39;;;;;;;6.13;5.83;;;;;;;;;;5089012;28;20450;-86
2023/03/19 17:07:09;;;;;;;9.70;8.97;;;;;;;;;;5087475;28;21934;-85
2023/03/19 17:09:35;;;;;;;6.70;6.30;;;;;;;;;;5101161;28;20452;-86
2023/03/19 17:12:01;;;;;;;6.60;6.30;;;;;;;;;;5092662;28;20541;-87
2023/03/19 17:14:30;;;;;;;7.83;7.23;;;;;;;;;;5095654;28;20424;-88
2023/03/19 17:16:56;;;;;;;7.33;6.83;;;;;;;;;;5081776;28;20487;-82
2023/03/19 17:19:35;;;;;;;6.37;6.07;;;;;;;;;;5103771;28;20426;-86
2023/03/19 17:22:04;;;;;;;6.20;5.80;;;;;;;;;;5079594;28;20524;-87
2023/03/19 17:24:32;;;;;;;7.83;7.17;;;;;;;;;;5098384;28;20432;-83
2023/03/19 17:26:59;;;;;;;6.83;6.33;;;;;;;;;;5105570;28;20432;-89
2023/03/19 17:29:25;;;;;;;8.10;7.50;;;;;;;;;;5108005;28;20420;-87
2023/03/19 17:31:52;;;;;;;6.13;5.73;;;;;;;;;;5096040;28;20440;-86
2023/03/19 17:34:26;;;;;;;8.80;6.37;;;;;;;;;;5110877;28;20477;-87
2023/03/19 17:36:57;;;;;;;8.07;7.30;;;;;;;;;;5112553;28;20472;-83
2023/03/19 17:39:23;;;;;;;8.83;7.10;;;;;;;;;;5109818;28;20420;-86
2023/03/19 17:41:50;;;;;;;5.97;5.50;;;;;;;;;;5110453;28;20444;-86
2023/03/19 17:44:16;;;;;;;6.20;5.80;;;;;;;;;;5111582;28;20479;-87
2023/03/19 17:46:49;;;;;;;7.17;6.70;;;;;;;;;;5114921;28;20450;-87
2023/03/19 17:49:20;;;;;;;7.77;7.07;;;;;;;;;;5118374;28;20447;-86
2023/03/19 17:51:46;;;;;;;6.93;6.23;;;;;;;;;;5107806;28;20601;-84
2023/03/19 17:56:49;;;;;;;7.83;7.07;;;;;;;;;;5217923;22;20485;-86
2023/03/19 17:59:15;;;;;;;8.73;7.97;;;;;;;;;;5129364;27;20449;-84
2023/03/19 18:01:46;;;;;;;7.03;6.50;;;;;;;;;;5123801;27;20406;-83
2023/03/19 18:04:20;;;;;;;7.60;6.90;;;;;;;;;;5104439;28;20581;-85
2023/03/19 18:06:48;;;;;;;6.73;6.33;;;;;;;;;;5131502;27;20413;-84
2023/03/19 18:09:19;;;;;;;7.10;6.60;;;;;;;;;;5124735;27;20475;-85
2023/03/19 18:11:45;;;;;;;10.63;9.80;;;;;;;;;;5120140;27;20434;-84
2023/03/19 18:14:11;;;;;;;8.97;8.23;;;;;;;;;;5124525;27;20457;-81
2023/03/19 18:16:38;;;;;;;8.97;8.07;;;;;;;;;;5117837;27;20471;-75
2023/03/19 18:19:10;;;;;;;9.07;8.33;;;;;;;;;;5080214;28;20455;-81
2023/03/19 18:21:37;;;;;;;8.57;7.93;;;;;;;;;;5106588;27;20407;-83
2023/03/19 18:24:03;;;;;;;9.00;8.43;;;;;;;;;;5099689;27;20991;-81
2023/03/19 18:26:30;;;;;;;9.47;8.77;;;;;;;;;;5107131;27;20427;-81
2023/03/19 18:28:56;;;;;;;10.00;9.17;;;;;;;;;;5104094;27;20450;-82
2023/03/19 18:31:25;;;;;;;11.17;8.90;;;;;;;;;;5086836;27;20419;-81
2023/03/19 18:33:53;;;;;;;10.30;9.23;;;;;;;;;;5103540;27;20442;-82
2023/03/19 18:36:21;;;;;;;9.93;7.90;;;;;;;;;;5089311;28;20481;-82
2023/03/19 18:38:47;;;;;;;9.97;9.00;;;;;;;;;;5110432;27;20553;-80
2023/03/19 18:41:17;;;;;;;12.13;9.70;;;;;;;;;;5113274;27;20623;-80